createdAt,value
2022-09-12T00:01:46.719Z,7.22
2022-09-12T00:06:48.311Z,7.90
2022-09-12T00:11:50.462Z,6.40
2022-09-12T00:16:51.982Z,13.13
2022-09-12T00:21:53.656Z,16.15
2022-09-12T00:26:55.156Z,12.75
2022-09-12T00:31:56.686Z,24.48
2022-09-12T00:36:58.176Z,20.63
2022-09-12T00:41:59.661Z,21.80
2022-09-12T00:47:06.056Z,22.90
2022-09-12T00:52:13.509Z,18.47
2022-09-12T00:57:16.776Z,24.52
2022-09-12T01:02:18.611Z,19.75
2022-09-12T01:07:21.747Z,22.50
2022-09-12T01:12:23.220Z,25.08
2022-09-12T01:17:31.909Z,21.85
2022-09-12T01:23:14.910Z,27.27
2022-09-12T01:28:54.637Z,24.80
2022-09-12T01:34:02.925Z,27.42
2022-09-12T01:39:10.476Z,25.60
2022-09-12T01:44:18.339Z,23.55
2022-09-12T01:49:29.408Z,24.08
2022-09-12T01:54:39.890Z,23.35
2022-09-12T01:59:47.386Z,22.60
2022-09-12T02:04:56.132Z,22.05
2022-09-12T02:10:02.362Z,25.85
2022-09-12T02:15:09.200Z,27.08
2022-09-12T02:20:46.520Z,29.20
2022-09-12T02:25:46.821Z,22.42
2022-09-12T02:31:20.509Z,27.27
2022-09-12T02:36:34.943Z,30.48
2022-09-12T02:41:36.555Z,26.75
2022-09-12T02:46:43.943Z,29.15
2022-09-12T02:51:46.814Z,25.38
2022-09-12T02:56:48.435Z,27.42
2022-09-12T03:02:04.586Z,29.08
2022-09-12T03:07:06.205Z,30.27
2022-09-12T03:12:29.795Z,29.00
2022-09-12T03:18:06.677Z,29.05
2022-09-12T03:23:45.094Z,31.60
2022-09-12T03:28:47.805Z,30.45
2022-09-12T03:33:49.275Z,30.50
2022-09-12T03:38:51.222Z,31.58
2022-09-12T03:43:52.774Z,33.65
2022-09-12T03:48:54.214Z,33.92
2022-09-12T03:53:55.761Z,30.27
2022-09-12T03:58:57.504Z,30.88
2022-09-12T04:03:58.992Z,32.17
2022-09-12T04:09:00.745Z,31.23
2022-09-12T04:14:02.204Z,29.42
2022-09-12T04:19:03.953Z,29.75
2022-09-12T04:24:05.671Z,29.67
2022-09-12T04:29:07.165Z,27.10
2022-09-12T04:34:08.842Z,29.85
2022-09-12T04:39:10.568Z,29.00
2022-09-12T04:44:14.344Z,32.10
2022-09-12T04:49:17.367Z,28.50
2022-09-12T04:54:20.031Z,30.95
2022-09-12T04:59:22.289Z,27.25
2022-09-12T05:04:23.740Z,27.40
2022-09-12T05:09:25.249Z,29.90
2022-09-12T05:14:26.734Z,28.65
2022-09-12T05:19:30.048Z,35.20
2022-09-12T05:24:32.058Z,27.23
2022-09-12T05:29:34.053Z,32.13
2022-09-12T05:34:35.505Z,28.50
2022-09-12T05:39:37.083Z,30.45
2022-09-12T05:44:38.653Z,32.33
2022-09-12T05:49:40.140Z,27.45
2022-09-12T05:54:41.603Z,27.60
2022-09-12T05:59:43.419Z,27.45
2022-09-12T06:04:45.790Z,28.38
2022-09-12T06:09:47.245Z,26.50
2022-09-12T06:14:49.343Z,28.73
2022-09-12T06:19:51.060Z,27.60
2022-09-12T06:24:56.037Z,26.75
2022-09-12T06:29:59.583Z,26.88
2022-09-12T06:35:01.457Z,29.67
2022-09-12T06:40:03.330Z,25.83
2022-09-12T06:45:05.056Z,27.83
2022-09-12T06:50:07.164Z,27.40
2022-09-12T06:55:08.752Z,28.58
2022-09-12T07:00:10.709Z,29.48
2022-09-12T07:05:12.980Z,28.00
2022-09-12T07:10:16.985Z,25.20
2022-09-12T07:15:20.500Z,23.50
2022-09-12T07:20:23.095Z,28.20
2022-09-12T07:25:24.588Z,26.50
2022-09-12T07:30:26.208Z,25.75
2022-09-12T07:35:27.730Z,28.55
2022-09-12T07:40:29.456Z,30.77
2022-09-12T07:45:31.120Z,28.38
2022-09-12T07:50:33.507Z,31.35
2022-09-12T07:55:34.954Z,29.10
2022-09-12T08:00:37.818Z,27.85
2022-09-12T08:05:39.373Z,28.20
2022-09-12T08:10:40.885Z,30.02
2022-09-12T08:15:42.504Z,27.80
2022-09-12T08:20:43.962Z,32.10
2022-09-12T08:25:45.612Z,31.33
2022-09-12T08:30:47.168Z,35.50
2022-09-12T08:35:48.754Z,33.83
2022-09-12T08:41:02.247Z,30.10
2022-09-12T08:46:30.130Z,32.08
2022-09-12T08:51:35.586Z,30.92
2022-09-12T08:56:39.142Z,30.70
2022-09-12T09:01:44.631Z,31.42
2022-09-12T09:06:59.247Z,32.17
2022-09-12T09:12:06.741Z,31.88
2022-09-12T09:17:13.154Z,25.00
2022-09-12T09:22:25.132Z,23.05
2022-09-12T09:27:42.565Z,25.25
2022-09-12T09:32:47.772Z,23.23
2022-09-12T09:38:08.665Z,22.33
2022-09-12T09:43:22.875Z,17.30
2022-09-12T09:48:35.235Z,20.13
2022-09-12T09:53:50.392Z,19.52
2022-09-12T09:58:51.955Z,19.92
2022-09-12T10:03:55.674Z,16.95
2022-09-12T10:09:15.731Z,17.33
2022-09-12T10:14:43.184Z,19.88
2022-09-12T10:19:49.849Z,19.00
2022-09-12T10:25:01.755Z,20.90
2022-09-12T10:30:07.439Z,19.15
2022-09-12T10:35:17.651Z,17.30
2022-09-12T10:40:27.738Z,23.98
2022-09-12T10:45:37.580Z,19.40
2022-09-12T10:50:41.535Z,17.92
2022-09-12T10:56:01.594Z,19.75
2022-09-12T11:01:36.351Z,18.48
2022-09-12T11:06:47.098Z,21.00
2022-09-12T11:12:14.626Z,18.27
2022-09-12T11:18:04.645Z,19.15
2022-09-12T11:23:17.203Z,19.52
2022-09-12T11:28:30.734Z,15.65
2022-09-12T11:33:43.186Z,16.17
2022-09-12T11:38:52.235Z,17.40
2022-09-12T11:44:24.545Z,16.55
2022-09-12T11:49:38.240Z,17.02
2022-09-12T11:54:44.867Z,14.18
2022-09-12T12:05:24.258Z,11.40
2022-09-12T12:10:35.640Z,11.52
2022-09-12T12:15:39.227Z,11.57
2022-09-12T12:20:40.901Z,10.57
2022-09-12T12:25:52.940Z,9.40
2022-09-12T12:30:54.869Z,12.07
2022-09-12T12:36:02.252Z,11.93
2022-09-12T12:41:18.498Z,11.85
2022-09-12T12:46:26.493Z,16.20
2022-09-12T12:51:35.674Z,15.27
2022-09-12T12:56:42.504Z,15.77
2022-09-12T13:01:54.706Z,11.07
2022-09-12T13:07:08.728Z,14.05
2022-09-12T13:12:21.777Z,11.55
2022-09-12T13:17:26.138Z,12.65
2022-09-12T13:22:42.201Z,16.58
2022-09-12T13:28:26.415Z,13.93
2022-09-12T13:33:28.433Z,10.75
2022-09-12T13:38:54.370Z,11.52
2022-09-12T13:43:55.932Z,9.48
2022-09-12T13:49:00.295Z,7.78
2022-09-12T13:54:05.305Z,9.15
2022-09-12T13:59:12.461Z,5.68
2022-09-12T14:04:38.601Z,5.55
2022-09-12T14:09:43.848Z,8.50
2022-09-12T14:14:48.869Z,9.50
2022-09-12T14:19:52.683Z,7.95
2022-09-12T14:24:54.613Z,6.22
2022-09-12T14:30:20.067Z,7.15
2022-09-12T14:35:21.846Z,8.73
2022-09-12T14:40:24.173Z,10.88
2022-09-12T14:45:30.208Z,8.30
2022-09-12T14:50:35.430Z,9.50
2022-09-12T14:55:45.297Z,8.45
2022-09-12T15:01:08.289Z,7.60
2022-09-12T15:06:39.903Z,8.50
2022-09-12T15:11:41.354Z,9.00
2022-09-12T15:16:42.876Z,7.30
2022-09-12T15:21:44.346Z,5.95
2022-09-12T15:26:45.799Z,4.90
2022-09-12T15:31:50.847Z,4.97
2022-09-12T15:36:52.739Z,6.45
2022-09-12T15:41:54.224Z,4.68
2022-09-12T15:46:55.697Z,7.65
2022-09-12T15:51:57.367Z,6.03
2022-09-12T15:56:59.399Z,4.93
2022-09-12T16:02:01.162Z,5.72
2022-09-12T16:07:02.639Z,7.72
2022-09-12T16:12:04.191Z,6.28
2022-09-12T16:17:05.630Z,5.32
2022-09-12T16:22:07.126Z,5.07
2022-09-12T16:27:08.601Z,3.67
2022-09-12T16:32:10.163Z,7.47
2022-09-12T16:37:11.618Z,4.28
2022-09-12T16:42:13.095Z,9.55
2022-09-12T16:47:15.219Z,6.35
2022-09-12T16:52:17.051Z,9.18
2022-09-12T16:57:18.527Z,9.23
2022-09-12T17:02:20.432Z,6.05
2022-09-12T17:07:22.201Z,8.90
2022-09-12T17:12:24.035Z,11.52
2022-09-12T17:17:25.617Z,4.95
2022-09-12T17:22:27.751Z,8.60
2022-09-12T17:27:29.235Z,7.15
2022-09-12T17:32:30.723Z,7.85
2022-09-12T17:37:32.258Z,10.82
2022-09-12T17:42:34.437Z,9.07
2022-09-12T17:47:35.967Z,8.75
2022-09-12T17:52:37.499Z,9.73
2022-09-12T17:57:40.161Z,6.43
2022-09-12T18:02:42.846Z,7.57
2022-09-12T18:07:44.375Z,8.50
2022-09-12T18:12:47.042Z,5.45
2022-09-12T18:17:48.511Z,14.52
2022-09-12T18:22:50.048Z,11.15
2022-09-12T18:27:51.922Z,13.00
2022-09-12T18:32:53.377Z,8.30
2022-09-12T18:37:55.751Z,8.43
2022-09-12T18:42:57.204Z,8.65
2022-09-12T18:47:58.749Z,6.68
2022-09-12T18:53:00.259Z,12.13
2022-09-12T18:58:01.725Z,8.80
2022-09-12T19:03:03.212Z,9.00
2022-09-12T19:08:04.854Z,11.25
2022-09-12T19:13:06.498Z,8.30
2022-09-12T19:18:08.724Z,11.10
2022-09-12T19:23:10.242Z,8.57
2022-09-12T19:28:12.288Z,11.02
2022-09-12T19:33:13.844Z,9.40
2022-09-12T19:38:15.708Z,13.70
2022-09-12T19:43:17.227Z,14.30
2022-09-12T19:48:19.692Z,10.88
2022-09-12T19:53:21.212Z,8.13
2022-09-12T19:58:22.683Z,15.00
2022-09-12T20:03:24.194Z,11.57
2022-09-12T20:08:25.661Z,11.95
2022-09-12T20:13:27.688Z,10.32
2022-09-12T20:18:29.216Z,12.98
2022-09-12T20:23:30.862Z,11.73
2022-09-12T20:28:32.513Z,15.48
2022-09-12T20:33:34.490Z,9.48
2022-09-12T20:38:36.459Z,10.88
2022-09-12T20:43:40.939Z,10.20
2022-09-12T20:48:43.144Z,11.13
2022-09-12T20:53:44.636Z,14.73
2022-09-12T20:58:46.229Z,13.35
2022-09-12T21:03:47.953Z,13.27
2022-09-12T21:08:50.184Z,15.75
2022-09-12T21:13:52.745Z,15.20
2022-09-12T21:18:56.988Z,18.02
2022-09-12T21:23:59.761Z,13.65
2022-09-12T21:29:01.418Z,14.95
2022-09-12T21:34:02.958Z,14.75
2022-09-12T21:39:05.126Z,16.65
2022-09-12T21:44:07.383Z,18.45
2022-09-12T21:49:08.865Z,16.30
2022-09-12T21:54:10.366Z,18.02
2022-09-12T21:59:11.848Z,16.55
2022-09-12T22:04:13.398Z,15.98
2022-09-12T22:09:16.887Z,20.52
2022-09-12T22:14:18.570Z,22.90
2022-09-12T22:19:20.183Z,18.80
2022-09-12T22:24:27.566Z,22.20
2022-09-12T22:29:29.085Z,20.13
2022-09-12T22:34:30.819Z,27.77
2022-09-12T22:39:32.462Z,21.45
2022-09-12T22:44:34.118Z,29.10
2022-09-12T22:49:35.618Z,25.25
2022-09-12T22:54:37.670Z,20.60
2022-09-12T22:59:39.446Z,16.98
2022-09-12T23:04:40.891Z,12.02
2022-09-12T23:09:42.427Z,13.15
2022-09-12T23:14:43.965Z,15.98
2022-09-12T23:19:45.643Z,13.52
2022-09-12T23:24:47.221Z,14.05
2022-09-12T23:29:52.289Z,16.98
2022-09-12T23:34:53.840Z,17.23
2022-09-12T23:39:55.396Z,16.83
2022-09-12T23:44:57.207Z,17.13
2022-09-12T23:49:58.713Z,20.15
2022-09-12T23:55:00.158Z,21.10
